createdAt,value
2019-04-30T00:02:15.876Z,41.63
2019-04-30T00:05:05.507Z,43.47
2019-04-30T00:07:55.025Z,45.50
2019-04-30T00:10:45.275Z,41.20
2019-04-30T00:13:33.483Z,46.40
2019-04-30T00:16:21.099Z,45.97
2019-04-30T00:19:10.658Z,46.50
2019-04-30T00:22:00.482Z,47.80
2019-04-30T00:24:50.059Z,46.07
2019-04-30T00:27:39.039Z,44.53
2019-04-30T00:30:27.749Z,49.53
2019-04-30T00:33:22.111Z,52.50
2019-04-30T00:36:06.329Z,48.27
2019-04-30T00:38:54.812Z,52.00
2019-04-30T00:41:46.352Z,48.20
2019-04-30T00:44:33.462Z,46.93
2019-04-30T00:47:21.891Z,49.77
2019-04-30T00:50:10.213Z,49.27
2019-04-30T00:52:57.893Z,45.57
2019-04-30T00:55:48.362Z,46.83
2019-04-30T00:58:35.637Z,47.00
2019-04-30T01:01:44.272Z,44.63
2019-04-30T01:04:45.002Z,49.20
2019-04-30T01:07:35.327Z,49.10
2019-04-30T01:10:27.300Z,42.40
2019-04-30T01:13:14.291Z,44.37
2019-04-30T01:16:02.535Z,47.83
2019-04-30T01:18:50.771Z,46.87
2019-04-30T01:21:40.188Z,49.80
2019-04-30T01:24:31.652Z,45.87
2019-04-30T01:27:20.315Z,48.23
2019-04-30T01:30:13.265Z,48.10
2019-04-30T01:33:01.069Z,47.60
2019-04-30T01:35:49.390Z,44.63
2019-04-30T01:38:40.109Z,51.67
2019-04-30T01:41:30.929Z,44.60
2019-04-30T01:44:16.943Z,51.30
2019-04-30T01:47:04.927Z,47.93
2019-04-30T01:49:55.778Z,46.87
2019-04-30T01:52:55.460Z,46.93
2019-04-30T01:56:00.884Z,51.50
2019-04-30T01:59:01.287Z,53.97
2019-04-30T02:01:50.182Z,49.80
2019-04-30T02:04:39.344Z,50.47
2019-04-30T02:07:28.776Z,50.23
2019-04-30T02:10:18.654Z,50.07
2019-04-30T02:13:08.838Z,49.70
2019-04-30T02:15:59.086Z,50.33
2019-04-30T02:18:46.706Z,47.10
2019-04-30T02:21:34.928Z,48.60
2019-04-30T02:24:23.086Z,48.40
2019-04-30T02:27:11.670Z,55.40
2019-04-30T02:30:02.603Z,47.83
2019-04-30T02:32:49.541Z,50.07
2019-04-30T02:35:45.702Z,52.87
2019-04-30T02:38:35.621Z,52.33
2019-04-30T02:41:25.048Z,46.57
2019-04-30T02:44:13.045Z,46.30
2019-04-30T02:47:02.095Z,50.63
2019-04-30T02:49:53.510Z,49.53
2019-04-30T02:52:42.532Z,44.77
2019-04-30T02:55:43.918Z,47.00
2019-04-30T02:58:32.619Z,48.17
2019-04-30T03:01:20.864Z,46.30
2019-04-30T03:04:09.843Z,46.50
2019-04-30T03:06:59.813Z,47.07
2019-04-30T03:09:49.932Z,44.47
2019-04-30T03:12:40.250Z,42.03
2019-04-30T03:15:29.591Z,44.43
2019-04-30T03:18:24.474Z,42.47
2019-04-30T03:21:19.135Z,46.30
2019-04-30T03:24:10.509Z,40.80
2019-04-30T03:26:59.431Z,43.10
2019-04-30T03:29:50.304Z,41.77
2019-04-30T03:32:42.626Z,46.53
2019-04-30T03:35:26.733Z,46.33
2019-04-30T03:38:15.257Z,47.93
2019-04-30T03:41:03.519Z,47.57
2019-04-30T03:43:51.507Z,47.93
2019-04-30T03:46:40.441Z,48.30
2019-04-30T03:49:29.825Z,46.50
2019-04-30T03:52:19.700Z,49.93
2019-04-30T03:55:09.316Z,47.13
2019-04-30T03:58:00.075Z,47.40
2019-04-30T04:01:00.371Z,46.20
2019-04-30T04:04:05.841Z,46.07
2019-04-30T04:07:16.088Z,48.10
2019-04-30T04:10:15.408Z,52.70
2019-04-30T04:13:03.141Z,51.27
2019-04-30T04:15:51.291Z,44.40
2019-04-30T04:18:40.210Z,54.93
2019-04-30T04:21:30.001Z,48.67
2019-04-30T04:24:20.212Z,43.87
2019-04-30T04:27:09.580Z,42.70
2019-04-30T04:29:56.672Z,43.10
2019-04-30T04:32:45.081Z,45.80
2019-04-30T04:35:33.352Z,46.73
2019-04-30T04:38:21.513Z,45.77
2019-04-30T04:41:10.276Z,43.77
2019-04-30T04:44:00.125Z,43.23
2019-04-30T04:46:50.004Z,43.80
2019-04-30T04:49:39.777Z,45.73
2019-04-30T04:52:31.127Z,47.43
2019-04-30T04:55:21.724Z,43.10
2019-04-30T04:58:06.691Z,40.97
2019-04-30T05:00:55.008Z,40.73
2019-04-30T05:03:42.703Z,41.70
2019-04-30T05:06:31.355Z,40.70
2019-04-30T05:09:19.559Z,43.43
2019-04-30T05:12:08.543Z,42.83
2019-04-30T05:14:56.350Z,43.37
2019-04-30T05:17:44.659Z,39.93
2019-04-30T05:20:33.039Z,41.13
2019-04-30T05:23:21.876Z,45.30
2019-04-30T05:26:11.071Z,42.93
2019-04-30T05:28:59.471Z,40.13
2019-04-30T05:31:48.555Z,43.20
2019-04-30T05:34:38.551Z,44.40
2019-04-30T05:37:28.378Z,40.53
2019-04-30T05:40:18.807Z,40.27
2019-04-30T05:43:06.110Z,41.70
2019-04-30T05:45:54.338Z,41.20
2019-04-30T05:48:42.927Z,40.20
2019-04-30T05:51:30.979Z,39.57
2019-04-30T05:54:19.005Z,38.43
2019-04-30T05:57:09.413Z,39.00
2019-04-30T05:59:58.467Z,47.90
2019-04-30T06:02:46.947Z,39.73
2019-04-30T06:05:34.963Z,37.63
2019-04-30T06:08:25.250Z,38.40
2019-04-30T06:11:16.866Z,38.47
2019-04-30T06:14:22.478Z,37.67
2019-04-30T06:17:13.355Z,35.43
2019-04-30T06:20:01.398Z,32.90
2019-04-30T06:22:52.091Z,34.23
2019-04-30T06:25:55.652Z,33.87
2019-04-30T06:28:29.529Z,34.77
2019-04-30T06:31:22.303Z,36.20
2019-04-30T06:34:08.572Z,34.50
2019-04-30T06:36:59.513Z,35.70
2019-04-30T06:39:47.319Z,34.93
2019-04-30T06:42:35.276Z,31.87
2019-04-30T06:45:23.476Z,31.90
2019-04-30T06:48:12.651Z,30.30
2019-04-30T06:51:00.919Z,32.77
2019-04-30T06:53:51.253Z,32.60
2019-04-30T06:56:38.779Z,34.60
2019-04-30T06:59:26.819Z,35.67
2019-04-30T07:02:14.919Z,31.47
2019-04-30T07:05:02.698Z,30.40
2019-04-30T07:08:11.486Z,31.57
2019-04-30T07:11:16.287Z,30.53
2019-04-30T07:14:04.070Z,30.73
2019-04-30T07:16:51.755Z,29.77
2019-04-30T07:19:53.335Z,31.73
2019-04-30T07:22:39.636Z,31.83
2019-04-30T07:25:19.517Z,30.40
2019-04-30T07:28:08.981Z,30.10
2019-04-30T07:31:10.735Z,29.13
2019-04-30T07:33:50.729Z,30.67
2019-04-30T07:36:48.283Z,29.27
2019-04-30T07:39:29.330Z,28.80
2019-04-30T07:42:15.899Z,30.33
2019-04-30T07:45:04.266Z,30.90
2019-04-30T07:47:52.936Z,31.43
2019-04-30T07:50:42.208Z,33.23
2019-04-30T07:53:31.092Z,31.60
2019-04-30T07:56:26.742Z,30.27
2019-04-30T07:59:11.037Z,31.80
2019-04-30T08:02:07.425Z,32.17
2019-04-30T08:05:10.321Z,31.37
2019-04-30T08:08:14.433Z,31.53
2019-04-30T08:10:46.854Z,32.00
2019-04-30T08:13:35.418Z,31.13
2019-04-30T08:16:24.091Z,29.90
2019-04-30T08:19:13.180Z,29.30
2019-04-30T08:22:01.706Z,29.40
2019-04-30T08:24:49.314Z,28.27
2019-04-30T08:27:39.303Z,26.73
2019-04-30T08:30:30.040Z,27.10
2019-04-30T08:33:19.351Z,28.60
2019-04-30T08:36:09.296Z,27.97
2019-04-30T08:38:56.911Z,26.70
2019-04-30T08:41:44.770Z,30.87
2019-04-30T08:44:32.765Z,27.63
2019-04-30T08:47:21.302Z,29.00
2019-04-30T08:50:10.689Z,27.50
2019-04-30T08:53:00.033Z,27.40
2019-04-30T08:55:49.184Z,27.43
2019-04-30T08:58:39.091Z,27.10
2019-04-30T09:01:29.380Z,26.83
2019-04-30T09:04:19.937Z,28.30
2019-04-30T09:07:10.065Z,27.50
2019-04-30T09:09:58.515Z,25.67
2019-04-30T09:12:49.512Z,26.53
2019-04-30T09:15:36.935Z,26.07
2019-04-30T09:18:25.687Z,28.00
2019-04-30T09:21:13.991Z,29.23
2019-04-30T09:24:02.355Z,26.37
2019-04-30T09:26:50.168Z,27.80
2019-04-30T09:29:39.164Z,29.47
2019-04-30T09:32:29.084Z,29.37
2019-04-30T09:35:19.510Z,30.10
2019-04-30T09:38:09.201Z,32.77
2019-04-30T09:40:59.276Z,31.90
2019-04-30T09:43:49.255Z,32.60
2019-04-30T09:46:36.582Z,31.07
2019-04-30T09:49:24.119Z,29.70
2019-04-30T09:52:12.371Z,30.30
2019-04-30T09:55:01.316Z,29.50
2019-04-30T09:57:51.389Z,28.70
2019-04-30T10:00:39.568Z,29.80
2019-04-30T10:03:29.711Z,28.10
2019-04-30T10:06:18.944Z,28.20
2019-04-30T10:09:09.630Z,27.47
2019-04-30T10:12:13.740Z,28.30
2019-04-30T10:15:02.010Z,27.42
2019-04-30T10:17:50.063Z,28.10
2019-04-30T10:20:42.904Z,28.80
2019-04-30T10:23:31.327Z,29.20
2019-04-30T10:26:20.115Z,27.97
2019-04-30T10:29:08.466Z,29.87
2019-04-30T10:31:58.668Z,28.03
2019-04-30T10:34:46.267Z,28.37
2019-04-30T10:37:33.915Z,25.30
2019-04-30T10:40:21.980Z,27.47
2019-04-30T10:43:10.238Z,26.87
2019-04-30T10:45:58.567Z,25.47
2019-04-30T10:48:46.288Z,26.82
2019-04-30T10:51:33.843Z,25.88
2019-04-30T10:54:25.758Z,25.90
2019-04-30T10:57:11.361Z,25.60
2019-04-30T10:59:59.787Z,25.72
2019-04-30T11:02:49.532Z,23.83
2019-04-30T11:05:40.681Z,23.18
2019-04-30T11:08:27.503Z,22.62
2019-04-30T11:11:15.483Z,24.57
2019-04-30T11:14:04.106Z,23.87
2019-04-30T11:16:51.913Z,23.02
2019-04-30T11:19:40.250Z,23.42
2019-04-30T11:22:28.950Z,22.50
2019-04-30T11:25:17.289Z,23.98
2019-04-30T11:28:06.748Z,23.52
2019-04-30T11:31:08.740Z,24.25
2019-04-30T11:33:57.063Z,24.27
2019-04-30T11:36:45.404Z,20.02
2019-04-30T11:39:33.716Z,22.25
2019-04-30T11:42:21.591Z,22.07
2019-04-30T11:45:09.519Z,17.82
2019-04-30T11:47:59.056Z,17.40
2019-04-30T11:50:49.708Z,18.35
2019-04-30T11:53:38.985Z,16.57
2019-04-30T11:56:27.259Z,18.55
2019-04-30T11:59:15.278Z,21.50
2019-04-30T12:02:06.273Z,21.27
2019-04-30T12:04:54.215Z,21.37
2019-04-30T12:07:48.287Z,17.95
2019-04-30T12:11:05.548Z,17.70
2019-04-30T12:13:53.232Z,17.62
2019-04-30T12:16:41.262Z,17.12
2019-04-30T12:19:29.523Z,18.82
2019-04-30T12:22:20.082Z,16.12
2019-04-30T12:25:06.827Z,18.77
2019-04-30T12:27:55.397Z,17.00
2019-04-30T12:30:43.971Z,18.55
2019-04-30T12:33:32.178Z,14.95
2019-04-30T12:36:20.560Z,14.70
2019-04-30T12:39:09.292Z,15.75
2019-04-30T12:41:59.244Z,15.63
2019-04-30T12:44:47.339Z,15.38
2019-04-30T12:47:39.983Z,13.48
2019-04-30T12:50:42.991Z,13.32
2019-04-30T12:53:49.011Z,15.25
2019-04-30T12:56:59.067Z,16.17
2019-04-30T12:59:46.653Z,15.20
2019-04-30T13:02:34.666Z,12.80
2019-04-30T13:05:22.295Z,15.65
2019-04-30T13:08:10.417Z,14.80
2019-04-30T13:10:59.288Z,16.70
2019-04-30T13:13:49.968Z,15.43
2019-04-30T13:16:39.177Z,12.82
2019-04-30T13:19:26.960Z,14.80
2019-04-30T13:22:15.206Z,16.70
2019-04-30T13:25:03.734Z,15.13
2019-04-30T13:27:54.786Z,14.30
2019-04-30T13:30:42.774Z,15.35
2019-04-30T13:33:42.813Z,15.45
2019-04-30T13:36:31.395Z,15.00
2019-04-30T13:39:29.197Z,15.23
2019-04-30T13:42:24.727Z,16.97
2019-04-30T13:45:13.142Z,14.20
2019-04-30T13:48:01.169Z,16.97
2019-04-30T13:50:48.677Z,16.12
2019-04-30T13:53:36.645Z,15.95
2019-04-30T13:56:25.094Z,15.55
2019-04-30T13:59:12.650Z,17.02
2019-04-30T14:02:01.068Z,17.00
2019-04-30T14:05:12.102Z,18.17
2019-04-30T14:08:13.267Z,15.88
2019-04-30T14:11:01.358Z,16.52
2019-04-30T14:13:49.837Z,15.95
2019-04-30T14:16:37.603Z,17.73
2019-04-30T14:19:25.623Z,18.48
2019-04-30T14:22:13.651Z,17.52
2019-04-30T14:25:01.564Z,19.35
2019-04-30T14:27:54.545Z,17.10
2019-04-30T14:30:39.393Z,19.85
2019-04-30T14:33:29.241Z,17.57
2019-04-30T14:36:19.392Z,16.30
2019-04-30T14:39:16.154Z,19.73
2019-04-30T14:41:59.955Z,17.98
2019-04-30T14:44:51.041Z,18.48
2019-04-30T14:47:50.079Z,19.17
2019-04-30T14:50:38.569Z,18.70
2019-04-30T14:53:39.145Z,17.12
2019-04-30T14:56:49.390Z,17.92
2019-04-30T15:00:06.195Z,18.25
2019-04-30T15:03:00.049Z,17.87
2019-04-30T15:05:51.367Z,18.17
2019-04-30T15:08:39.386Z,19.85
2019-04-30T15:11:28.878Z,18.07
2019-04-30T15:14:17.400Z,17.45
2019-04-30T15:17:05.455Z,17.55
2019-04-30T15:19:54.611Z,18.65
2019-04-30T15:22:49.467Z,17.50
2019-04-30T15:25:38.805Z,17.75
2019-04-30T15:28:32.359Z,19.52
2019-04-30T15:31:18.444Z,19.37
2019-04-30T15:34:11.297Z,20.80
2019-04-30T15:36:59.353Z,19.00
2019-04-30T15:39:48.865Z,19.63
2019-04-30T15:42:40.575Z,18.40
2019-04-30T15:45:29.202Z,18.00
2019-04-30T15:48:19.616Z,17.93
2019-04-30T15:51:09.034Z,20.83
2019-04-30T15:53:57.714Z,19.93
2019-04-30T15:56:46.404Z,19.80
2019-04-30T15:59:44.545Z,20.60
2019-04-30T16:02:53.458Z,21.20
2019-04-30T16:05:40.899Z,19.90
2019-04-30T16:08:50.111Z,20.70
2019-04-30T16:11:56.692Z,21.13
2019-04-30T16:14:44.463Z,20.67
2019-04-30T16:17:32.438Z,23.27
2019-04-30T16:20:20.720Z,23.90
2019-04-30T16:23:09.133Z,22.47
2019-04-30T16:25:57.210Z,22.60
2019-04-30T16:28:45.727Z,24.17
2019-04-30T16:31:33.714Z,25.90
2019-04-30T16:34:21.927Z,26.17
2019-04-30T16:37:10.416Z,25.60
2019-04-30T16:39:58.813Z,26.90
2019-04-30T16:42:46.538Z,27.63
2019-04-30T16:45:34.330Z,26.07
2019-04-30T16:48:22.775Z,26.13
2019-04-30T16:51:10.410Z,24.40
2019-04-30T16:53:58.686Z,28.13
2019-04-30T16:56:52.385Z,26.13
2019-04-30T16:59:40.691Z,25.40
2019-04-30T17:02:30.354Z,24.90
2019-04-30T17:05:26.438Z,26.73
2019-04-30T17:08:23.965Z,27.63
2019-04-30T17:11:21.212Z,26.03
2019-04-30T17:14:12.422Z,26.33
2019-04-30T17:17:00.918Z,26.53
2019-04-30T17:19:49.229Z,25.57
2019-04-30T17:22:39.367Z,27.87
2019-04-30T17:25:27.555Z,25.37
2019-04-30T17:28:15.517Z,25.20
2019-04-30T17:31:04.241Z,26.03
2019-04-30T17:33:52.094Z,25.20
2019-04-30T17:36:40.195Z,24.53
2019-04-30T17:39:28.591Z,26.40
2019-04-30T17:42:16.563Z,25.07
2019-04-30T17:45:04.811Z,25.23
2019-04-30T17:47:53.027Z,24.90
2019-04-30T17:50:41.494Z,25.57
2019-04-30T17:53:29.783Z,25.67
2019-04-30T17:56:18.323Z,23.87
2019-04-30T17:59:06.703Z,23.33
2019-04-30T18:01:59.660Z,24.00
2019-04-30T18:04:47.892Z,24.40
2019-04-30T18:07:35.939Z,24.33
2019-04-30T18:10:23.705Z,25.87
2019-04-30T18:13:12.204Z,23.03
2019-04-30T18:16:00.596Z,26.30
2019-04-30T18:18:54.528Z,24.13
2019-04-30T18:21:50.451Z,23.60
2019-04-30T18:24:53.871Z,23.00
2019-04-30T18:27:49.469Z,23.10
2019-04-30T18:30:39.129Z,23.23
2019-04-30T18:33:27.418Z,24.90
2019-04-30T18:36:14.883Z,24.50
2019-04-30T18:39:03.482Z,24.10
2019-04-30T18:41:52.102Z,22.50
2019-04-30T18:44:40.307Z,21.70
2019-04-30T18:47:28.190Z,22.10
2019-04-30T18:50:17.094Z,24.07
2019-04-30T18:53:11.585Z,24.00
2019-04-30T18:56:00.058Z,23.33
2019-04-30T18:58:48.671Z,23.87
2019-04-30T19:01:37.242Z,24.97
2019-04-30T19:04:25.503Z,23.57
2019-04-30T19:07:22.394Z,25.57
2019-04-30T19:10:19.950Z,25.33
2019-04-30T19:13:18.911Z,25.30
2019-04-30T19:16:25.728Z,24.83
2019-04-30T19:19:22.694Z,24.37
2019-04-30T19:22:10.789Z,24.40
2019-04-30T19:25:04.037Z,24.00
2019-04-30T19:27:49.522Z,24.03
2019-04-30T19:30:38.990Z,25.10
2019-04-30T19:33:30.780Z,26.03
2019-04-30T19:36:20.339Z,24.80
2019-04-30T19:39:09.614Z,24.90
2019-04-30T19:41:58.367Z,26.63
2019-04-30T19:44:57.097Z,27.47
2019-04-30T19:47:36.483Z,26.07
2019-04-30T19:50:24.498Z,25.80
2019-04-30T19:53:12.988Z,27.03
2019-04-30T19:56:00.498Z,26.57
2019-04-30T19:59:01.699Z,25.67
2019-04-30T20:01:39.176Z,26.93
2019-04-30T20:04:34.083Z,26.40
2019-04-30T20:07:17.312Z,28.27
2019-04-30T20:10:06.219Z,28.23
2019-04-30T20:12:54.338Z,27.97
2019-04-30T20:15:42.471Z,29.43
2019-04-30T20:18:30.662Z,27.07
2019-04-30T20:21:27.974Z,26.87
2019-04-30T20:24:10.055Z,27.70
2019-04-30T20:27:06.388Z,27.17
2019-04-30T20:29:49.331Z,27.27
2019-04-30T20:32:37.320Z,29.20
2019-04-30T20:35:25.372Z,29.90
2019-04-30T20:38:32.866Z,30.30
2019-04-30T20:41:20.427Z,27.47
2019-04-30T20:44:08.835Z,29.33
2019-04-30T20:46:59.440Z,30.13
2019-04-30T20:49:49.004Z,29.60
2019-04-30T20:52:38.835Z,27.90
2019-04-30T20:55:27.207Z,27.93
2019-04-30T20:58:14.706Z,29.13
2019-04-30T21:01:06.376Z,28.83
2019-04-30T21:03:51.983Z,30.73
2019-04-30T21:06:40.575Z,29.60
2019-04-30T21:09:29.207Z,31.67
2019-04-30T21:12:18.767Z,29.43
2019-04-30T21:15:06.842Z,30.30
2019-04-30T21:17:54.863Z,30.70
2019-04-30T21:20:43.292Z,29.97
2019-04-30T21:23:31.806Z,30.67
2019-04-30T21:26:20.003Z,30.33
2019-04-30T21:29:13.708Z,30.70
2019-04-30T21:32:26.445Z,29.70
2019-04-30T21:35:35.275Z,32.00
2019-04-30T21:38:23.607Z,32.63
2019-04-30T21:41:11.852Z,32.67
2019-04-30T21:43:59.816Z,32.00
2019-04-30T21:46:47.577Z,32.90
2019-04-30T21:49:36.015Z,30.97
2019-04-30T21:52:24.456Z,33.47
2019-04-30T21:55:13.391Z,35.60
2019-04-30T21:58:01.798Z,31.37
2019-04-30T22:01:10.891Z,34.37
2019-04-30T22:03:58.636Z,34.73
2019-04-30T22:06:46.750Z,32.50
2019-04-30T22:09:35.128Z,33.47
2019-04-30T22:12:22.678Z,33.30
2019-04-30T22:15:13.718Z,35.60
2019-04-30T22:18:01.958Z,33.80
2019-04-30T22:20:50.191Z,35.93
2019-04-30T22:23:38.267Z,34.20
2019-04-30T22:26:25.725Z,34.17
2019-04-30T22:29:14.178Z,34.40
2019-04-30T22:32:02.511Z,32.87
2019-04-30T22:34:50.730Z,34.30
2019-04-30T22:37:38.887Z,34.83
2019-04-30T22:40:29.107Z,33.83
2019-04-30T22:43:16.644Z,35.43
2019-04-30T22:46:10.300Z,36.57
2019-04-30T22:48:58.308Z,34.27
2019-04-30T22:51:46.762Z,30.87
2019-04-30T22:54:34.903Z,34.50
2019-04-30T22:57:22.716Z,37.83
2019-04-30T23:00:14.417Z,34.63
2019-04-30T23:03:05.451Z,32.70
2019-04-30T23:05:54.143Z,36.83
2019-04-30T23:08:42.120Z,37.20
2019-04-30T23:11:30.509Z,34.43
2019-04-30T23:14:18.842Z,36.17
2019-04-30T23:17:07.372Z,35.60
2019-04-30T23:19:55.856Z,34.67
2019-04-30T23:22:44.024Z,37.80
2019-04-30T23:25:32.229Z,39.83
2019-04-30T23:28:20.256Z,39.03
2019-04-30T23:31:08.391Z,35.30
2019-04-30T23:33:56.867Z,37.43
2019-04-30T23:36:45.644Z,39.10
2019-04-30T23:39:33.694Z,39.40
2019-04-30T23:42:21.692Z,37.70
2019-04-30T23:45:10.139Z,37.07
2019-04-30T23:47:58.323Z,41.57
2019-04-30T23:50:46.476Z,37.83
2019-04-30T23:53:34.051Z,37.83
2019-04-30T23:56:22.846Z,37.47
2019-04-30T23:59:10.578Z,43.73
